sensor_id;sensor_type;location;lat;lon;timestamp;temperature;humidity
55365;DHT22;41245;45.384;20.390;2023-02-15T00:01:35;102.40;2227.20
55365;DHT22;41245;45.384;20.390;2023-02-15T00:04:01;102.40;2227.20
55365;DHT22;41245;45.384;20.390;2023-02-15T00:06:27;102.40;2227.20
55365;DHT22;41245;45.384;20.390;2023-02-15T00:08:54;102.40;2227.20
55365;DHT22;41245;45.384;20.390;2023-02-15T00:11:19;102.40;2227.20
55365;DHT22;41245;45.384;20.390;2023-02-15T00:16:35;102.40;2227.20
55365;DHT22;41245;45.384;20.390;2023-02-15T00:19:01;102.40;2227.20
55365;DHT22;41245;45.384;20.390;2023-02-15T00:21:28;102.40;2227.20
55365;DHT22;41245;45.384;20.390;2023-02-15T00:23:55;77.70;2227.20
55365;DHT22;41245;45.384;20.390;2023-02-15T00:26:21;77.70;2227.20
55365;DHT22;41245;45.384;20.390;2023-02-15T00:28:46;102.40;2227.20
55365;DHT22;41245;45.384;20.390;2023-02-15T00:31:12;102.40;2227.20
55365;DHT22;41245;45.384;20.390;2023-02-15T00:33:39;102.40;2227.20
55365;DHT22;41245;45.384;20.390;2023-02-15T00:36:06;77.60;2227.20
55365;DHT22;41245;45.384;20.390;2023-02-15T00:38:33;77.60;2227.20
55365;DHT22;41245;45.384;20.390;2023-02-15T00:41:01;77.60;2227.20
55365;DHT22;41245;45.384;20.390;2023-02-15T00:43:28;77.60;2227.20
55365;DHT22;41245;45.384;20.390;2023-02-15T00:45:54;77.60;2227.20
55365;DHT22;41245;45.384;20.390;2023-02-15T00:48:20;77.60;2227.20
55365;DHT22;41245;45.384;20.390;2023-02-15T00:50:53;77.60;2227.20
55365;DHT22;41245;45.384;20.390;2023-02-15T00:53:19;77.60;2227.20
55365;DHT22;41245;45.384;20.390;2023-02-15T00:55:45;77.50;2227.20
55365;DHT22;41245;45.384;20.390;2023-02-15T00:58:12;77.50;2227.20
55365;DHT22;41245;45.384;20.390;2023-02-15T01:00:38;77.50;2227.20
55365;DHT22;41245;45.384;20.390;2023-02-15T01:03:05;77.50;2227.20
55365;DHT22;41245;45.384;20.390;2023-02-15T01:05:31;77.50;2227.20
55365;DHT22;41245;45.384;20.390;2023-02-15T01:07:58;77.40;2227.20
55365;DHT22;41245;45.384;20.390;2023-02-15T01:10:25;77.50;2227.20
55365;DHT22;41245;45.384;20.390;2023-02-15T01:12:51;77.50;2227.20
55365;DHT22;41245;45.384;20.390;2023-02-15T01:15:17;77.50;2227.20
55365;DHT22;41245;45.384;20.390;2023-02-15T01:17:43;77.40;2227.20
55365;DHT22;41245;45.384;20.390;2023-02-15T01:20:15;77.40;2227.20
55365;DHT22;41245;45.384;20.390;2023-02-15T01:22:41;77.40;2227.20
55365;DHT22;41245;45.384;20.390;2023-02-15T01:25:06;77.40;2227.20
55365;DHT22;41245;45.384;20.390;2023-02-15T01:27:32;77.40;2227.20
55365;DHT22;41245;45.384;20.390;2023-02-15T01:29:57;77.30;2227.20
55365;DHT22;41245;45.384;20.390;2023-02-15T01:32:23;77.30;2227.20
55365;DHT22;41245;45.384;20.390;2023-02-15T01:34:49;77.30;2227.20
55365;DHT22;41245;45.384;20.390;2023-02-15T01:37:14;77.30;2227.20
55365;DHT22;41245;45.384;20.390;2023-02-15T01:39:40;77.30;2227.20
55365;DHT22;41245;45.384;20.390;2023-02-15T01:42:10;77.30;2227.20
55365;DHT22;41245;45.384;20.390;2023-02-15T01:44:46;77.30;2227.20
55365;DHT22;41245;45.384;20.390;2023-02-15T01:47:21;77.30;2227.20
55365;DHT22;41245;45.384;20.390;2023-02-15T01:49:48;77.20;2227.20
55365;DHT22;41245;45.384;20.390;2023-02-15T01:52:17;77.20;2227.20
55365;DHT22;41245;45.384;20.390;2023-02-15T01:54:44;77.50;2227.20
55365;DHT22;41245;45.384;20.390;2023-02-15T01:57:16;77.20;2227.20
55365;DHT22;41245;45.384;20.390;2023-02-15T01:59:46;77.20;2227.20
55365;DHT22;41245;45.384;20.390;2023-02-15T02:02:14;77.20;2227.20
55365;DHT22;41245;45.384;20.390;2023-02-15T02:04:45;77.20;2227.20
55365;DHT22;41245;45.384;20.390;2023-02-15T02:07:14;77.20;2227.20
55365;DHT22;41245;45.384;20.390;2023-02-15T02:09:40;77.20;2227.20
55365;DHT22;41245;45.384;20.390;2023-02-15T02:12:06;77.30;2227.20
55365;DHT22;41245;45.384;20.390;2023-02-15T02:14:32;77.20;2227.20
55365;DHT22;41245;45.384;20.390;2023-02-15T02:17:17;77.20;2227.20
55365;DHT22;41245;45.384;20.390;2023-02-15T02:31:44;77.10;2227.20
55365;DHT22;41245;45.384;20.390;2023-02-15T02:42:40;77.20;2227.20
55365;DHT22;41245;45.384;20.390;2023-02-15T02:45:28;77.20;2227.20
55365;DHT22;41245;45.384;20.390;2023-02-15T02:48:05;77.20;2227.20
55365;DHT22;41245;45.384;20.390;2023-02-15T02:50:32;77.20;2227.20
55365;DHT22;41245;45.384;20.390;2023-02-15T02:52:58;77.30;2227.20
55365;DHT22;41245;45.384;20.390;2023-02-15T02:58:02;77.30;2227.20
55365;DHT22;41245;45.384;20.390;2023-02-15T03:00:32;77.30;2227.20
55365;DHT22;41245;45.384;20.390;2023-02-15T03:03:03;77.30;2227.20
55365;DHT22;41245;45.384;20.390;2023-02-15T03:05:33;77.30;2227.20
55365;DHT22;41245;45.384;20.390;2023-02-15T03:08:02;77.30;2227.20
55365;DHT22;41245;45.384;20.390;2023-02-15T03:10:32;77.30;2227.20
55365;DHT22;41245;45.384;20.390;2023-02-15T03:12:59;77.30;2227.20
55365;DHT22;41245;45.384;20.390;2023-02-15T03:15:33;77.30;2227.20
55365;DHT22;41245;45.384;20.390;2023-02-15T03:18:22;77.20;2227.20
55365;DHT22;41245;45.384;20.390;2023-02-15T03:20:49;77.20;2227.20
55365;DHT22;41245;45.384;20.390;2023-02-15T03:23:22;77.20;2227.20
55365;DHT22;41245;45.384;20.390;2023-02-15T03:26:05;77.20;2227.20
55365;DHT22;41245;45.384;20.390;2023-02-15T03:28:38;77.20;2227.20
55365;DHT22;41245;45.384;20.390;2023-02-15T03:31:07;77.20;2227.20
55365;DHT22;41245;45.384;20.390;2023-02-15T03:33:37;77.20;2227.20
55365;DHT22;41245;45.384;20.390;2023-02-15T03:36:33;77.20;2227.20
55365;DHT22;41245;45.384;20.390;2023-02-15T03:42:13;77.30;2227.20
55365;DHT22;41245;45.384;20.390;2023-02-15T03:47:15;77.20;2227.20
55365;DHT22;41245;45.384;20.390;2023-02-15T03:50:18;77.20;2227.20
55365;DHT22;41245;45.384;20.390;2023-02-15T03:53:06;77.20;2227.20
55365;DHT22;41245;45.384;20.390;2023-02-15T03:55:34;77.20;2227.20
55365;DHT22;41245;45.384;20.390;2023-02-15T03:58:00;77.20;2227.20
55365;DHT22;41245;45.384;20.390;2023-02-15T04:01:05;77.10;2227.20
55365;DHT22;41245;45.384;20.390;2023-02-15T04:04:08;77.20;2227.20
55365;DHT22;41245;45.384;20.390;2023-02-15T04:06:37;77.10;2227.20
55365;DHT22;41245;45.384;20.390;2023-02-15T04:09:03;77.10;2227.20
55365;DHT22;41245;45.384;20.390;2023-02-15T04:11:47;77.10;2227.20
55365;DHT22;41245;45.384;20.390;2023-02-15T04:14:12;77.10;2227.20
55365;DHT22;41245;45.384;20.390;2023-02-15T04:16:56;77.00;2227.20
55365;DHT22;41245;45.384;20.390;2023-02-15T04:19:22;77.00;2227.20
55365;DHT22;41245;45.384;20.390;2023-02-15T04:22:06;77.00;2227.20
55365;DHT22;41245;45.384;20.390;2023-02-15T04:24:50;77.00;2227.20
55365;DHT22;41245;45.384;20.390;2023-02-15T04:27:35;76.90;2227.20
55365;DHT22;41245;45.384;20.390;2023-02-15T04:30:00;76.90;2227.20
55365;DHT22;41245;45.384;20.390;2023-02-15T04:32:26;76.90;2227.20
55365;DHT22;41245;45.384;20.390;2023-02-15T04:34:52;76.90;2227.20
55365;DHT22;41245;45.384;20.390;2023-02-15T04:37:18;76.90;2227.20
55365;DHT22;41245;45.384;20.390;2023-02-15T04:39:44;76.90;2227.20
55365;DHT22;41245;45.384;20.390;2023-02-15T04:42:09;76.80;2227.20
55365;DHT22;41245;45.384;20.390;2023-02-15T04:44:35;76.80;2227.20
55365;DHT22;41245;45.384;20.390;2023-02-15T04:47:01;76.90;2227.20
55365;DHT22;41245;45.384;20.390;2023-02-15T04:49:26;52.10;2227.20
55365;DHT22;41245;45.384;20.390;2023-02-15T04:51:52;52.10;2227.20
55365;DHT22;41245;45.384;20.390;2023-02-15T04:54:17;52.10;2227.20
55365;DHT22;41245;45.384;20.390;2023-02-15T04:56:43;52.10;2227.20
55365;DHT22;41245;45.384;20.390;2023-02-15T04:59:12;76.80;2227.20
55365;DHT22;41245;45.384;20.390;2023-02-15T05:01:38;52.10;2227.20
55365;DHT22;41245;45.384;20.390;2023-02-15T05:04:03;52.10;2227.20
55365;DHT22;41245;45.384;20.390;2023-02-15T05:06:29;52.10;2227.20
55365;DHT22;41245;45.384;20.390;2023-02-15T05:08:55;52.10;2227.20
55365;DHT22;41245;45.384;20.390;2023-02-15T05:11:21;52.00;2227.20
55365;DHT22;41245;45.384;20.390;2023-02-15T05:13:47;52.00;2227.20
55365;DHT22;41245;45.384;20.390;2023-02-15T05:16:12;52.00;2227.20
55365;DHT22;41245;45.384;20.390;2023-02-15T05:18:38;52.00;2227.20
55365;DHT22;41245;45.384;20.390;2023-02-15T05:21:04;51.90;2227.20
55365;DHT22;41245;45.384;20.390;2023-02-15T05:23:29;51.90;2227.20
55365;DHT22;41245;45.384;20.390;2023-02-15T05:25:55;51.90;2227.20
55365;DHT22;41245;45.384;20.390;2023-02-15T05:28:39;51.90;2227.20
55365;DHT22;41245;45.384;20.390;2023-02-15T05:33:34;51.80;2227.20
55365;DHT22;41245;45.384;20.390;2023-02-15T05:36:00;51.80;2227.20
55365;DHT22;41245;45.384;20.390;2023-02-15T05:38:26;51.90;2227.20
55365;DHT22;41245;45.384;20.390;2023-02-15T05:40:52;51.90;2227.20
55365;DHT22;41245;45.384;20.390;2023-02-15T05:43:18;51.90;2227.20
55365;DHT22;41245;45.384;20.390;2023-02-15T05:45:48;51.80;2227.20
55365;DHT22;41245;45.384;20.390;2023-02-15T05:48:14;51.90;2227.20
55365;DHT22;41245;45.384;20.390;2023-02-15T05:50:40;51.90;2227.20
55365;DHT22;41245;45.384;20.390;2023-02-15T05:53:05;51.90;2227.20
55365;DHT22;41245;45.384;20.390;2023-02-15T05:55:31;52.00;2227.20
55365;DHT22;41245;45.384;20.390;2023-02-15T05:57:57;52.00;2227.20
55365;DHT22;41245;45.384;20.390;2023-02-15T06:00:22;52.00;2227.20
55365;DHT22;41245;45.384;20.390;2023-02-15T06:02:48;52.00;2227.20
55365;DHT22;41245;45.384;20.390;2023-02-15T06:05:14;52.10;2227.20
55365;DHT22;41245;45.384;20.390;2023-02-15T06:07:43;52.10;2227.20
55365;DHT22;41245;45.384;20.390;2023-02-15T06:10:10;76.80;2227.20
55365;DHT22;41245;45.384;20.390;2023-02-15T06:12:35;76.80;2227.20
55365;DHT22;41245;45.384;20.390;2023-02-15T06:15:01;76.80;2227.20
55365;DHT22;41245;45.384;20.390;2023-02-15T06:17:27;76.80;2227.20
55365;DHT22;41245;45.384;20.390;2023-02-15T06:19:52;76.90;2227.20
55365;DHT22;41245;45.384;20.390;2023-02-15T06:22:18;77.00;2227.20
55365;DHT22;41245;45.384;20.390;2023-02-15T06:24:45;77.10;2227.20
55365;DHT22;41245;45.384;20.390;2023-02-15T06:27:11;77.20;2227.20
55365;DHT22;41245;45.384;20.390;2023-02-15T06:29:37;77.20;2227.20
55365;DHT22;41245;45.384;20.390;2023-02-15T06:32:03;77.20;2227.20
55365;DHT22;41245;45.384;20.390;2023-02-15T06:34:28;77.20;2227.20
55365;DHT22;41245;45.384;20.390;2023-02-15T06:36:54;77.30;2227.20
55365;DHT22;41245;45.384;20.390;2023-02-15T06:39:20;77.40;2227.20
55365;DHT22;41245;45.384;20.390;2023-02-15T06:41:45;77.50;2227.20
55365;DHT22;41245;45.384;20.390;2023-02-15T06:44:11;77.60;2227.20
55365;DHT22;41245;45.384;20.390;2023-02-15T06:46:36;77.70;2227.20
55365;DHT22;41245;45.384;20.390;2023-02-15T06:49:02;102.40;2227.20
55365;DHT22;41245;45.384;20.390;2023-02-15T06:51:28;102.40;2227.20
55365;DHT22;41245;45.384;20.390;2023-02-15T06:53:53;102.50;2227.20
55365;DHT22;41245;45.384;20.390;2023-02-15T06:56:19;102.60;2227.20
55365;DHT22;41245;45.384;20.390;2023-02-15T06:58:44;102.70;2227.20
55365;DHT22;41245;45.384;20.390;2023-02-15T07:01:15;102.80;2227.20
55365;DHT22;41245;45.384;20.390;2023-02-15T07:03:40;102.80;2227.20
55365;DHT22;41245;45.384;20.390;2023-02-15T07:06:06;102.90;2227.20
55365;DHT22;41245;45.384;20.390;2023-02-15T07:08:34;102.90;2227.20
55365;DHT22;41245;45.384;20.390;2023-02-15T07:11:01;103.10;2227.20
55365;DHT22;41245;45.384;20.390;2023-02-15T07:13:45;103.20;2227.20
55365;DHT22;41245;45.384;20.390;2023-02-15T07:16:11;103.20;2227.20
55365;DHT22;41245;45.384;20.390;2023-02-15T07:18:38;103.30;2227.20
55365;DHT22;41245;45.384;20.390;2023-02-15T07:21:04;128.00;2252.80
55365;DHT22;41245;45.384;20.390;2023-02-15T07:23:29;128.00;2252.80
55365;DHT22;41245;45.384;20.390;2023-02-15T07:25:59;128.10;2252.80
55365;DHT22;41245;45.384;20.390;2023-02-15T07:28:25;128.20;2252.80
55365;DHT22;41245;45.384;20.390;2023-02-15T07:30:51;128.40;2252.80
55365;DHT22;41245;45.384;20.390;2023-02-15T07:33:16;128.50;2252.80
55365;DHT22;41245;45.384;20.390;2023-02-15T07:35:55;128.60;2252.80
55365;DHT22;41245;45.384;20.390;2023-02-15T07:38:24;128.60;2252.80
55365;DHT22;41245;45.384;20.390;2023-02-15T07:40:50;128.70;2252.80
55365;DHT22;41245;45.384;20.390;2023-02-15T07:43:16;128.80;2252.80
55365;DHT22;41245;45.384;20.390;2023-02-15T07:45:42;128.90;2252.80
55365;DHT22;41245;45.384;20.390;2023-02-15T07:48:08;153.60;2252.80
55365;DHT22;41245;45.384;20.390;2023-02-15T07:50:34;153.60;2252.80
55365;DHT22;41245;45.384;20.390;2023-02-15T07:53:03;153.70;2252.80
55365;DHT22;41245;45.384;20.390;2023-02-15T07:55:28;153.60;2252.80
55365;DHT22;41245;45.384;20.390;2023-02-15T07:57:54;153.60;2252.80
55365;DHT22;41245;45.384;20.390;2023-02-15T08:00:21;153.70;2252.80
55365;DHT22;41245;45.384;20.390;2023-02-15T08:02:55;153.90;2252.80
55365;DHT22;41245;45.384;20.390;2023-02-15T08:05:40;154.00;2252.80
55365;DHT22;41245;45.384;20.390;2023-02-15T08:08:07;154.00;2252.80
55365;DHT22;41245;45.384;20.390;2023-02-15T08:10:33;154.10;2252.80
55365;DHT22;41245;45.384;20.390;2023-02-15T08:13:17;154.10;2252.80
55365;DHT22;41245;45.384;20.390;2023-02-15T08:15:50;154.20;2252.80
55365;DHT22;41245;45.384;20.390;2023-02-15T08:18:15;154.30;2252.80
55365;DHT22;41245;45.384;20.390;2023-02-15T08:20:41;154.40;2252.80
55365;DHT22;41245;45.384;20.390;2023-02-15T08:23:07;154.50;2252.80
55365;DHT22;41245;45.384;20.390;2023-02-15T08:25:32;179.20;2252.80
55365;DHT22;41245;45.384;20.390;2023-02-15T08:27:58;179.20;2252.80
55365;DHT22;41245;45.384;20.390;2023-02-15T08:30:23;179.30;2252.80
55365;DHT22;41245;45.384;20.390;2023-02-15T08:32:49;179.30;2252.80
55365;DHT22;41245;45.384;20.390;2023-02-15T08:35:15;179.40;2252.80
55365;DHT22;41245;45.384;20.390;2023-02-15T08:37:40;179.50;2252.80
55365;DHT22;41245;45.384;20.390;2023-02-15T08:40:06;179.50;2252.80
55365;DHT22;41245;45.384;20.390;2023-02-15T08:42:33;179.60;2252.80
55365;DHT22;41245;45.384;20.390;2023-02-15T08:44:59;179.80;2252.80
55365;DHT22;41245;45.384;20.390;2023-02-15T08:47:25;179.90;2252.80
55365;DHT22;41245;45.384;20.390;2023-02-15T08:49:50;180.00;2252.80
55365;DHT22;41245;45.384;20.390;2023-02-15T08:52:16;204.80;2252.80
55365;DHT22;41245;45.384;20.390;2023-02-15T08:54:42;204.90;2252.80
55365;DHT22;41245;45.384;20.390;2023-02-15T08:57:08;205.10;2252.80
55365;DHT22;41245;45.384;20.390;2023-02-15T08:59:34;205.20;2252.80
55365;DHT22;41245;45.384;20.390;2023-02-15T09:02:01;205.30;2252.80
55365;DHT22;41245;45.384;20.390;2023-02-15T09:04:27;205.30;2252.80
55365;DHT22;41245;45.384;20.390;2023-02-15T09:06:52;205.40;2252.80
55365;DHT22;41245;45.384;20.390;2023-02-15T09:09:19;205.40;2252.80
55365;DHT22;41245;45.384;20.390;2023-02-15T09:11:47;205.50;2252.80
55365;DHT22;41245;45.384;20.390;2023-02-15T09:14:15;205.70;2252.80
55365;DHT22;41245;45.384;20.390;2023-02-15T09:16:42;230.40;2252.80
55365;DHT22;41245;45.384;20.390;2023-02-15T09:19:11;230.40;2252.80
55365;DHT22;41245;45.384;20.390;2023-02-15T09:21:38;230.40;2252.80
55365;DHT22;41245;45.384;20.390;2023-02-15T09:24:09;230.60;2252.80
55365;DHT22;41245;45.384;20.390;2023-02-15T09:26:37;230.70;2252.80
55365;DHT22;41245;45.384;20.390;2023-02-15T09:29:04;230.70;2252.80
55365;DHT22;41245;45.384;20.390;2023-02-15T09:31:38;230.80;2252.80
55365;DHT22;41245;45.384;20.390;2023-02-15T09:34:04;230.90;2252.80
55365;DHT22;41245;45.384;20.390;2023-02-15T09:36:32;231.00;2252.80
55365;DHT22;41245;45.384;20.390;2023-02-15T09:39:10;230.90;2252.80
55365;DHT22;41245;45.384;20.390;2023-02-15T09:47:49;231.20;2252.80
55365;DHT22;41245;45.384;20.390;2023-02-15T09:56:48;231.30;2252.80
55365;DHT22;41245;45.384;20.390;2023-02-15T10:13:39;256.30;2252.80
55365;DHT22;41245;45.384;20.390;2023-02-15T10:16:19;256.20;2252.80
55365;DHT22;41245;45.384;20.390;2023-02-15T10:18:53;256.30;2252.80
55365;DHT22;41245;45.384;20.390;2023-02-15T10:21:42;256.40;2252.80
55365;DHT22;41245;45.384;20.390;2023-02-15T10:26:46;256.70;2252.80
55365;DHT22;41245;45.384;20.390;2023-02-15T10:29:35;256.70;2252.80
55365;DHT22;41245;45.384;20.390;2023-02-15T10:32:22;256.80;2252.80
55365;DHT22;41245;45.384;20.390;2023-02-15T10:34:58;256.90;2252.80
55365;DHT22;41245;45.384;20.390;2023-02-15T10:40:46;281.60;2278.40
55365;DHT22;41245;45.384;20.390;2023-02-15T10:43:41;281.80;2278.40
55365;DHT22;41245;45.384;20.390;2023-02-15T10:46:56;281.80;2278.40
55365;DHT22;41245;45.384;20.390;2023-02-15T11:00:57;282.20;2278.40
55365;DHT22;41245;45.384;20.390;2023-02-15T11:06:35;282.30;2278.40
55365;DHT22;41245;45.384;20.390;2023-02-15T11:09:09;282.40;2278.40
55365;DHT22;41245;45.384;20.390;2023-02-15T11:11:40;282.40;2278.40
55365;DHT22;41245;45.384;20.390;2023-02-15T11:14:17;282.30;2278.40
55365;DHT22;41245;45.384;20.390;2023-02-15T11:16:50;282.20;2278.40
55365;DHT22;41245;45.384;20.390;2023-02-15T11:21:59;282.40;2278.40
55365;DHT22;41245;45.384;20.390;2023-02-15T11:24:27;282.40;2278.40
55365;DHT22;41245;45.384;20.390;2023-02-15T11:29:29;307.20;2304.00
55365;DHT22;41245;45.384;20.390;2023-02-15T11:32:21;282.50;2278.40
55365;DHT22;41245;45.384;20.390;2023-02-15T11:35:02;307.20;2304.00
55365;DHT22;41245;45.384;20.390;2023-02-15T11:37:43;307.20;2304.00
55365;DHT22;41245;45.384;20.390;2023-02-15T11:42:53;307.40;2304.00
55365;DHT22;41245;45.384;20.390;2023-02-15T11:45:30;307.40;2304.00
55365;DHT22;41245;45.384;20.390;2023-02-15T11:47:59;307.50;2304.00
55365;DHT22;41245;45.384;20.390;2023-02-15T11:50:29;307.40;2304.00
55365;DHT22;41245;45.384;20.390;2023-02-15T11:53:03;307.30;2304.00
55365;DHT22;41245;45.384;20.390;2023-02-15T11:55:30;307.20;2304.00
55365;DHT22;41245;45.384;20.390;2023-02-15T12:00:49;282.50;2278.40
55365;DHT22;41245;45.384;20.390;2023-02-15T12:03:22;282.40;2278.40
55365;DHT22;41245;45.384;20.390;2023-02-15T12:05:53;282.40;2278.40
55365;DHT22;41245;45.384;20.390;2023-02-15T12:08:22;282.40;2278.40
55365;DHT22;41245;45.384;20.390;2023-02-15T12:10:58;282.40;2278.40
55365;DHT22;41245;45.384;20.390;2023-02-15T12:13:25;282.40;2278.40
55365;DHT22;41245;45.384;20.390;2023-02-15T12:15:54;282.40;2278.40
55365;DHT22;41245;45.384;20.390;2023-02-15T12:20:59;282.50;2278.40
55365;DHT22;41245;45.384;20.390;2023-02-15T12:23:28;307.20;2304.00
55365;DHT22;41245;45.384;20.390;2023-02-15T12:25:55;307.20;2304.00
55365;DHT22;41245;45.384;20.390;2023-02-15T12:28:38;307.20;2304.00
55365;DHT22;41245;45.384;20.390;2023-02-15T12:31:25;282.50;2278.40
55365;DHT22;41245;45.384;20.390;2023-02-15T12:33:54;307.20;2304.00
55365;DHT22;41245;45.384;20.390;2023-02-15T12:36:24;307.20;2304.00
55365;DHT22;41245;45.384;20.390;2023-02-15T12:41:37;307.50;2304.00
55365;DHT22;41245;45.384;20.390;2023-02-15T12:49:21;307.50;2304.00
55365;DHT22;41245;45.384;20.390;2023-02-15T12:51:55;307.40;2304.00
55365;DHT22;41245;45.384;20.390;2023-02-15T12:57:20;307.20;2304.00
55365;DHT22;41245;45.384;20.390;2023-02-15T13:02:49;307.20;2304.00
55365;DHT22;41245;45.384;20.390;2023-02-15T13:05:35;307.20;2304.00
55365;DHT22;41245;45.384;20.390;2023-02-15T13:08:16;307.30;2304.00
55365;DHT22;41245;45.384;20.390;2023-02-15T13:13:24;307.40;2304.00
55365;DHT22;41245;45.384;20.390;2023-02-15T13:15:56;307.40;2304.00
55365;DHT22;41245;45.384;20.390;2023-02-15T13:18:31;307.20;2304.00
55365;DHT22;41245;45.384;20.390;2023-02-15T13:21:04;282.40;2278.40
55365;DHT22;41245;45.384;20.390;2023-02-15T13:23:31;282.50;2278.40
55365;DHT22;41245;45.384;20.390;2023-02-15T13:25:59;307.20;2304.00
55365;DHT22;41245;45.384;20.390;2023-02-15T13:28:45;282.40;2278.40
55365;DHT22;41245;45.384;20.390;2023-02-15T13:31:18;307.20;2304.00
55365;DHT22;41245;45.384;20.390;2023-02-15T13:34:15;307.20;2304.00
55365;DHT22;41245;45.384;20.390;2023-02-15T13:39:48;282.40;2278.40
55365;DHT22;41245;45.384;20.390;2023-02-15T13:42:19;282.50;2278.40
55365;DHT22;41245;45.384;20.390;2023-02-15T13:51:19;282.30;2278.40
55365;DHT22;41245;45.384;20.390;2023-02-15T13:59:00;282.50;2278.40
55365;DHT22;41245;45.384;20.390;2023-02-15T14:07:43;307.30;2304.00
55365;DHT22;41245;45.384;20.390;2023-02-15T14:18:47;307.40;2304.00
55365;DHT22;41245;45.384;20.390;2023-02-15T14:26:32;307.30;2304.00
55365;DHT22;41245;45.384;20.390;2023-02-15T14:31:54;307.30;2304.00
55365;DHT22;41245;45.384;20.390;2023-02-15T14:36:52;307.20;2304.00
55365;DHT22;41245;45.384;20.390;2023-02-15T14:39:37;307.20;2304.00
55365;DHT22;41245;45.384;20.390;2023-02-15T14:45:54;282.40;2278.40
55365;DHT22;41245;45.384;20.390;2023-02-15T14:48:39;282.40;2278.40
55365;DHT22;41245;45.384;20.390;2023-02-15T14:51:08;282.10;2278.40
55365;DHT22;41245;45.384;20.390;2023-02-15T14:53:35;282.10;2278.40
55365;DHT22;41245;45.384;20.390;2023-02-15T14:58:35;282.10;2278.40
55365;DHT22;41245;45.384;20.390;2023-02-15T15:01:07;282.10;2278.40
55365;DHT22;41245;45.384;20.390;2023-02-15T15:03:34;282.10;2278.40
55365;DHT22;41245;45.384;20.390;2023-02-15T15:06:04;282.10;2278.40
55365;DHT22;41245;45.384;20.390;2023-02-15T15:08:37;282.10;2278.40
55365;DHT22;41245;45.384;20.390;2023-02-15T15:14:01;281.90;2278.40
55365;DHT22;41245;45.384;20.390;2023-02-15T15:18:53;281.80;2278.40
55365;DHT22;41245;45.384;20.390;2023-02-15T15:21:56;281.60;2278.40
55365;DHT22;41245;45.384;20.390;2023-02-15T15:27:47;281.70;2278.40
55365;DHT22;41245;45.384;20.390;2023-02-15T15:38:12;256.60;2252.80
55365;DHT22;41245;45.384;20.390;2023-02-15T15:41:17;256.60;2252.80
55365;DHT22;41245;45.384;20.390;2023-02-15T15:49:17;256.60;2252.80
55365;DHT22;41245;45.384;20.390;2023-02-15T15:51:45;256.50;2252.80
55365;DHT22;41245;45.384;20.390;2023-02-15T15:54:22;256.40;2252.80
55365;DHT22;41245;45.384;20.390;2023-02-15T15:56:58;256.40;2252.80
55365;DHT22;41245;45.384;20.390;2023-02-15T15:59:33;256.40;2252.80
55365;DHT22;41245;45.384;20.390;2023-02-15T16:02:09;256.30;2252.80
55365;DHT22;41245;45.384;20.390;2023-02-15T16:04:36;256.20;2252.80
55365;DHT22;41245;45.384;20.390;2023-02-15T16:07:25;256.20;2252.80
55365;DHT22;41245;45.384;20.390;2023-02-15T16:12:23;256.00;2252.80
55365;DHT22;41245;45.384;20.390;2023-02-15T16:14:50;231.30;2252.80
55365;DHT22;41245;45.384;20.390;2023-02-15T16:17:22;231.30;2252.80
55365;DHT22;41245;45.384;20.390;2023-02-15T16:19:48;231.20;2252.80
55365;DHT22;41245;45.384;20.390;2023-02-15T16:22:18;231.20;2252.80
55365;DHT22;41245;45.384;20.390;2023-02-15T16:25:07;231.10;2252.80
55365;DHT22;41245;45.384;20.390;2023-02-15T16:27:46;231.00;2252.80
55365;DHT22;41245;45.384;20.390;2023-02-15T16:32:43;230.90;2252.80
55365;DHT22;41245;45.384;20.390;2023-02-15T16:35:15;230.80;2252.80
55365;DHT22;41245;45.384;20.390;2023-02-15T16:37:41;230.70;2252.80
55365;DHT22;41245;45.384;20.390;2023-02-15T16:42:49;230.60;2252.80
55365;DHT22;41245;45.384;20.390;2023-02-15T16:45:17;230.50;2252.80
55365;DHT22;41245;45.384;20.390;2023-02-15T16:47:47;230.40;2252.80
55365;DHT22;41245;45.384;20.390;2023-02-15T16:50:39;205.70;2252.80
55365;DHT22;41245;45.384;20.390;2023-02-15T16:53:07;205.70;2252.80
55365;DHT22;41245;45.384;20.390;2023-02-15T16:55:41;205.60;2252.80
55365;DHT22;41245;45.384;20.390;2023-02-15T16:58:11;205.50;2252.80
55365;DHT22;41245;45.384;20.390;2023-02-15T17:00:38;205.50;2252.80
55365;DHT22;41245;45.384;20.390;2023-02-15T17:05:56;205.40;2252.80
55365;DHT22;41245;45.384;20.390;2023-02-15T17:08:42;205.30;2252.80
55365;DHT22;41245;45.384;20.390;2023-02-15T17:19:09;205.10;2252.80
55365;DHT22;41245;45.384;20.390;2023-02-15T17:21:42;205.00;2252.80
55365;DHT22;41245;45.384;20.390;2023-02-15T17:24:38;204.90;2252.80
55365;DHT22;41245;45.384;20.390;2023-02-15T17:27:16;204.90;2252.80
55365;DHT22;41245;45.384;20.390;2023-02-15T17:30:00;204.80;2252.80
55365;DHT22;41245;45.384;20.390;2023-02-15T17:32:28;180.00;2252.80
55365;DHT22;41245;45.384;20.390;2023-02-15T17:40:22;179.90;2252.80
55365;DHT22;41245;45.384;20.390;2023-02-15T17:42:48;179.80;2252.80
55365;DHT22;41245;45.384;20.390;2023-02-15T17:45:14;179.80;2252.80
55365;DHT22;41245;45.384;20.390;2023-02-15T17:47:40;179.80;2252.80
55365;DHT22;41245;45.384;20.390;2023-02-15T17:50:06;179.70;2252.80
55365;DHT22;41245;45.384;20.390;2023-02-15T17:52:33;179.60;2252.80
55365;DHT22;41245;45.384;20.390;2023-02-15T17:55:07;179.60;2252.80
55365;DHT22;41245;45.384;20.390;2023-02-15T17:57:55;179.50;2252.80
55365;DHT22;41245;45.384;20.390;2023-02-15T18:00:21;179.50;2252.80
55365;DHT22;41245;45.384;20.390;2023-02-15T18:03:09;179.50;2252.80
55365;DHT22;41245;45.384;20.390;2023-02-15T18:05:54;179.40;2252.80
55365;DHT22;41245;45.384;20.390;2023-02-15T18:08:38;179.40;2252.80
55365;DHT22;41245;45.384;20.390;2023-02-15T18:11:22;179.30;2252.80
55365;DHT22;41245;45.384;20.390;2023-02-15T18:14:05;179.20;2252.80
55365;DHT22;41245;45.384;20.390;2023-02-15T18:16:43;179.20;2252.80
55365;DHT22;41245;45.384;20.390;2023-02-15T18:19:16;179.20;2252.80
55365;DHT22;41245;45.384;20.390;2023-02-15T18:21:43;154.50;2252.80
55365;DHT22;41245;45.384;20.390;2023-02-15T18:24:21;154.40;2252.80
55365;DHT22;41245;45.384;20.390;2023-02-15T18:26:49;154.40;2252.80